Time;durP1;ratioP1;P1;durP2;ratioP2;P2;SDS_P1;SDS_P2;PMS_P1;PMS_P2;Temp;Humidity;BMP_temperature;BMP_pressure;BME280_temperature;BME280_humidity;BME280_pressure;Samples;Min_cycle;Max_cycle;Signal;HPM_P1;HPM_P2
2023/01/14 00:01:41;;;;;;;0.85;0.57;;;;;;;;;;4990958;28;20030;-76
2023/01/14 00:04:07;;;;;;;0.77;0.45;;;;;;;;;;5008624;28;20037;-76
2023/01/14 00:06:35;;;;;;;0.32;0.32;;;;;;;;;;5006724;28;20517;-76
2023/01/14 00:09:02;;;;;;;1.65;0.45;;;;;;;;;;5003691;28;20033;-76
2023/01/14 00:11:46;;;;;;;1.02;0.50;;;;;;;;;;5006807;28;20026;-76
2023/01/14 00:14:14;;;;;;;0.70;0.50;;;;;;;;;;5005419;28;20022;-76
2023/01/14 00:16:40;;;;;;;1.23;0.40;;;;;;;;;;5003980;28;20048;-76
2023/01/14 00:19:18;;;;;;;1.08;0.60;;;;;;;;;;5006731;28;20108;-76
2023/01/14 00:21:45;;;;;;;0.25;0.25;;;;;;;;;;4987534;28;20041;-76
2023/01/14 00:24:12;;;;;;;0.40;0.40;;;;;;;;;;5006817;28;20084;-76
2023/01/14 00:26:38;;;;;;;1.10;0.57;;;;;;;;;;5005462;28;20146;-76
2023/01/14 00:29:04;;;;;;;2.38;0.50;;;;;;;;;;5007782;28;20374;-76
2023/01/14 00:31:30;;;;;;;0.70;0.70;;;;;;;;;;5006453;28;20469;-75
2023/01/14 00:33:58;;;;;;;1.75;0.55;;;;;;;;;;5006085;28;20038;-76
2023/01/14 00:36:24;;;;;;;0.43;0.43;;;;;;;;;;5005605;28;20042;-75
2023/01/14 00:38:51;;;;;;;3.22;0.55;;;;;;;;;;5008095;28;20026;-75
2023/01/14 00:41:19;;;;;;;0.40;0.40;;;;;;;;;;5008898;28;20477;-76
2023/01/14 00:43:46;;;;;;;1.05;0.38;;;;;;;;;;5005872;28;20026;-76
2023/01/14 00:46:13;;;;;;;1.25;0.43;;;;;;;;;;5004627;28;20057;-75
2023/01/14 00:48:39;;;;;;;1.42;0.75;;;;;;;;;;5007495;28;20026;-75
2023/01/14 00:51:06;;;;;;;0.75;0.47;;;;;;;;;;5005983;28;20029;-76
2023/01/14 00:53:32;;;;;;;0.52;0.40;;;;;;;;;;5007213;28;20026;-76
2023/01/14 00:55:58;;;;;;;0.98;0.50;;;;;;;;;;5003440;28;20026;-77
2023/01/14 00:58:24;;;;;;;0.50;0.50;;;;;;;;;;5000660;28;20813;-76
2023/01/14 01:00:52;;;;;;;2.35;0.95;;;;;;;;;;5003637;28;20101;-75
2023/01/14 01:03:17;;;;;;;0.68;0.50;;;;;;;;;;5002252;28;20308;-76
2023/01/14 01:05:43;;;;;;;0.68;0.35;;;;;;;;;;4999547;28;20779;-75
2023/01/14 01:08:11;;;;;;;0.90;0.30;;;;;;;;;;5006961;28;20026;-76
2023/01/14 01:10:37;;;;;;;2.40;0.40;;;;;;;;;;5002810;28;20997;-76
2023/01/14 01:13:03;;;;;;;1.00;0.60;;;;;;;;;;5004512;28;20117;-75
2023/01/14 01:15:33;;;;;;;1.35;0.77;;;;;;;;;;5001244;28;20049;-75
2023/01/14 01:17:59;;;;;;;1.00;0.50;;;;;;;;;;5004092;28;20025;-78
2023/01/14 01:20:25;;;;;;;0.85;0.52;;;;;;;;;;5001912;28;20396;-78
2023/01/14 01:22:51;;;;;;;0.55;0.47;;;;;;;;;;5007563;28;20025;-78
2023/01/14 01:25:20;;;;;;;3.88;0.40;;;;;;;;;;5002769;28;20454;-78
2023/01/14 01:27:46;;;;;;;0.57;0.45;;;;;;;;;;5004926;28;20026;-77
2023/01/14 01:30:12;;;;;;;0.38;0.38;;;;;;;;;;5005829;28;20018;-77
2023/01/14 01:32:39;;;;;;;1.92;0.70;;;;;;;;;;5004737;28;20052;-78
2023/01/14 01:35:10;;;;;;;2.83;0.30;;;;;;;;;;5004905;28;20477;-78
2023/01/14 01:37:36;;;;;;;1.45;0.60;;;;;;;;;;5003441;28;20116;-77
2023/01/14 01:40:03;;;;;;;1.02;0.50;;;;;;;;;;5007415;28;20080;-78
2023/01/14 01:42:33;;;;;;;0.90;0.55;;;;;;;;;;5009042;28;20088;-78
2023/01/14 01:45:25;;;;;;;1.77;0.40;;;;;;;;;;5008656;28;20433;-78
2023/01/14 01:47:54;;;;;;;1.25;0.38;;;;;;;;;;5002809;28;20356;-78
2023/01/14 01:50:20;;;;;;;1.30;0.20;;;;;;;;;;5009376;28;20037;-78
2023/01/14 01:52:46;;;;;;;0.25;0.25;;;;;;;;;;5006832;28;20615;-78
2023/01/14 01:55:12;;;;;;;1.55;1.02;;;;;;;;;;5008786;28;20129;-77
2023/01/14 01:57:39;;;;;;;0.70;0.50;;;;;;;;;;5007639;28;20022;-77
2023/01/14 02:00:07;;;;;;;1.60;0.40;;;;;;;;;;5007971;28;20034;-77
2023/01/14 02:02:33;;;;;;;1.88;0.60;;;;;;;;;;5007566;28;20030;-77
2023/01/14 02:04:58;;;;;;;0.60;0.40;;;;;;;;;;5009144;28;20461;-77
2023/01/14 02:07:25;;;;;;;1.23;0.50;;;;;;;;;;5006829;28;20037;-77
2023/01/14 02:09:56;;;;;;;1.83;0.47;;;;;;;;;;5006472;28;20018;-78
2023/01/14 02:12:43;;;;;;;0.57;0.40;;;;;;;;;;5008315;28;20057;-78
2023/01/14 02:15:09;;;;;;;1.10;0.47;;;;;;;;;;5005002;28;20120;-78
2023/01/14 02:18:11;;;;;;;1.52;0.60;;;;;;;;;;5005166;28;20036;-78
2023/01/14 02:20:48;;;;;;;1.08;0.60;;;;;;;;;;4980846;28;20053;-78
2023/01/14 02:23:14;;;;;;;0.73;0.35;;;;;;;;;;5005321;28;20040;-78
2023/01/14 02:25:50;;;;;;;0.35;0.32;;;;;;;;;;5005972;28;20054;-78
2023/01/14 02:28:36;;;;;;;1.27;0.40;;;;;;;;;;5003865;28;20426;-78
2023/01/14 02:31:20;;;;;;;1.17;0.50;;;;;;;;;;5007658;28;20088;-78
2023/01/14 02:34:06;;;;;;;0.73;0.40;;;;;;;;;;5003091;28;21296;-77
2023/01/14 02:36:37;;;;;;;1.40;0.70;;;;;;;;;;4968796;28;20441;-78
2023/01/14 02:39:13;;;;;;;0.30;0.30;;;;;;;;;;5005963;28;20033;-78
2023/01/14 02:44:43;;;;;;;0.47;0.38;;;;;;;;;;5004675;28;20037;-77
2023/01/14 02:47:18;;;;;;;3.30;0.57;;;;;;;;;;5005827;28;20025;-78
2023/01/14 02:49:45;;;;;;;2.13;0.50;;;;;;;;;;5005756;28;20038;-78
2023/01/14 02:52:11;;;;;;;0.50;0.40;;;;;;;;;;5006873;28;20086;-78
2023/01/14 02:54:38;;;;;;;1.45;0.65;;;;;;;;;;5006686;28;20104;-78
2023/01/14 02:57:08;;;;;;;0.77;0.30;;;;;;;;;;5009208;28;20025;-78
2023/01/14 02:59:37;;;;;;;0.65;0.52;;;;;;;;;;5005354;28;20128;-78
2023/01/14 03:02:20;;;;;;;0.30;0.30;;;;;;;;;;5006864;28;20112;-78
2023/01/14 03:04:52;;;;;;;1.15;0.55;;;;;;;;;;5004210;28;20505;-78
2023/01/14 03:07:21;;;;;;;0.30;0.30;;;;;;;;;;5007417;28;20014;-78
2023/01/14 03:10:06;;;;;;;0.60;0.40;;;;;;;;;;5005361;28;20034;-78
2023/01/14 03:12:43;;;;;;;1.23;0.55;;;;;;;;;;5004932;28;20034;-77
2023/01/14 03:15:30;;;;;;;0.40;0.40;;;;;;;;;;5004837;28;20031;-78
2023/01/14 03:18:00;;;;;;;0.32;0.25;;;;;;;;;;5007754;28;20144;-77
2023/01/14 03:20:33;;;;;;;0.73;0.38;;;;;;;;;;5005852;28;20049;-78
2023/01/14 03:23:02;;;;;;;1.08;0.40;;;;;;;;;;5007378;28;20527;-78
2023/01/14 03:25:31;;;;;;;4.35;0.50;;;;;;;;;;5003127;28;20068;-78
2023/01/14 03:27:58;;;;;;;0.60;0.40;;;;;;;;;;5006474;28;20036;-77
2023/01/14 03:30:38;;;;;;;0.15;0.15;;;;;;;;;;5006472;28;20165;-77
2023/01/14 03:33:10;;;;;;;0.52;0.32;;;;;;;;;;5008908;28;20030;-78
2023/01/14 03:35:40;;;;;;;1.42;0.40;;;;;;;;;;5004325;28;20025;-78
2023/01/14 03:38:20;;;;;;;2.65;0.50;;;;;;;;;;5006800;28;20030;-78
2023/01/14 03:40:48;;;;;;;1.20;0.47;;;;;;;;;;5003961;28;20033;-78
2023/01/14 03:43:17;;;;;;;0.35;0.30;;;;;;;;;;5009146;28;20029;-78
2023/01/14 03:45:52;;;;;;;0.30;0.30;;;;;;;;;;5008979;28;20056;-78
2023/01/14 03:48:18;;;;;;;0.40;0.40;;;;;;;;;;5005519;28;20037;-78
2023/01/14 03:50:44;;;;;;;0.45;0.45;;;;;;;;;;5004539;28;20473;-78
2023/01/14 03:53:21;;;;;;;0.63;0.40;;;;;;;;;;5003904;28;20040;-78
2023/01/14 03:55:58;;;;;;;0.40;0.40;;;;;;;;;;5002978;28;20061;-77
2023/01/14 03:58:24;;;;;;;0.93;0.38;;;;;;;;;;5005985;28;20137;-78
2023/01/14 04:01:06;;;;;;;2.85;0.30;;;;;;;;;;5003001;28;20030;-78
2023/01/14 04:03:32;;;;;;;0.45;0.43;;;;;;;;;;5004108;28;20545;-78
2023/01/14 04:05:58;;;;;;;0.35;0.35;;;;;;;;;;5007262;28;20037;-78
2023/01/14 04:08:25;;;;;;;0.47;0.28;;;;;;;;;;5003412;28;20054;-78
2023/01/14 04:10:51;;;;;;;0.20;0.20;;;;;;;;;;5007305;28;20108;-78
2023/01/14 04:16:02;;;;;;;0.30;0.30;;;;;;;;;;5006144;28;20087;-78
2023/01/14 04:18:28;;;;;;;2.22;0.40;;;;;;;;;;5008048;28;20038;-78
2023/01/14 04:20:54;;;;;;;0.93;0.47;;;;;;;;;;5002836;28;20168;-78
2023/01/14 04:23:20;;;;;;;0.30;0.30;;;;;;;;;;5006857;28;20474;-78
2023/01/14 04:25:46;;;;;;;0.95;0.50;;;;;;;;;;5005253;28;20536;-78
2023/01/14 04:28:12;;;;;;;0.85;0.55;;;;;;;;;;5007901;28;20029;-78
2023/01/14 04:30:40;;;;;;;0.88;0.30;;;;;;;;;;5005709;28;20034;-76
2023/01/14 04:33:06;;;;;;;1.30;0.70;;;;;;;;;;5004132;28;20034;-77
2023/01/14 04:35:41;;;;;;;0.73;0.30;;;;;;;;;;5007206;28;20037;-77
2023/01/14 04:38:07;;;;;;;0.38;0.30;;;;;;;;;;5007526;28;20440;-77
2023/01/14 04:40:33;;;;;;;0.63;0.40;;;;;;;;;;5007716;28;20030;-78
2023/01/14 04:42:59;;;;;;;0.45;0.40;;;;;;;;;;5006415;28;20022;-77
2023/01/14 04:45:25;;;;;;;0.40;0.20;;;;;;;;;;5003592;28;20045;-77
2023/01/14 04:47:51;;;;;;;0.80;0.25;;;;;;;;;;5007203;28;20030;-77
2023/01/14 04:53:13;;;;;;;0.57;0.40;;;;;;;;;;5002373;28;20385;-77
2023/01/14 04:55:40;;;;;;;0.35;0.30;;;;;;;;;;5015228;28;20041;-77
2023/01/14 04:58:07;;;;;;;0.13;0.13;;;;;;;;;;5007276;28;20116;-77
2023/01/14 05:00:34;;;;;;;0.35;0.35;;;;;;;;;;5007247;28;20495;-77
2023/01/14 05:03:01;;;;;;;0.63;0.50;;;;;;;;;;5005751;28;20388;-77
2023/01/14 05:05:27;;;;;;;0.93;0.30;;;;;;;;;;5006017;28;20066;-77
2023/01/14 05:07:53;;;;;;;2.28;0.30;;;;;;;;;;5007095;28;20022;-76
2023/01/14 05:10:19;;;;;;;0.40;0.40;;;;;;;;;;5005585;28;20373;-76
2023/01/14 05:12:58;;;;;;;0.55;0.40;;;;;;;;;;5005792;28;20359;-76
2023/01/14 05:15:24;;;;;;;0.60;0.60;;;;;;;;;;5010253;28;20124;-76
2023/01/14 05:17:50;;;;;;;0.30;0.30;;;;;;;;;;5008997;28;20026;-76
2023/01/14 05:20:19;;;;;;;0.40;0.35;;;;;;;;;;5007133;28;20508;-77
2023/01/14 05:22:45;;;;;;;0.25;0.25;;;;;;;;;;5007579;28;20045;-77
2023/01/14 05:25:11;;;;;;;0.30;0.30;;;;;;;;;;5007892;28;20026;-76
2023/01/14 05:27:37;;;;;;;1.17;0.43;;;;;;;;;;5006647;28;20172;-76
2023/01/14 05:30:04;;;;;;;0.30;0.30;;;;;;;;;;5004523;28;20021;-77
2023/01/14 05:32:30;;;;;;;1.02;0.50;;;;;;;;;;5008025;28;20029;-77
2023/01/14 05:34:56;;;;;;;0.60;0.30;;;;;;;;;;5005426;28;20500;-77
2023/01/14 05:37:22;;;;;;;0.30;0.30;;;;;;;;;;5005585;28;20048;-76
2023/01/14 05:39:48;;;;;;;0.50;0.50;;;;;;;;;;5007978;28;20030;-77
2023/01/14 05:47:44;;;;;;;1.23;0.57;;;;;;;;;;5004612;28;20041;-77
2023/01/14 05:50:10;;;;;;;0.47;0.35;;;;;;;;;;5002760;28;20018;-77
2023/01/14 05:52:57;;;;;;;1.10;0.50;;;;;;;;;;5007827;28;20088;-77
2023/01/14 05:55:23;;;;;;;0.38;0.38;;;;;;;;;;5004270;28;20181;-75
2023/01/14 05:57:49;;;;;;;0.60;0.40;;;;;;;;;;5006586;28;20084;-77
2023/01/14 06:08:36;;;;;;;0.43;0.35;;;;;;;;;;5009862;28;20043;-76
2023/01/14 06:11:02;;;;;;;0.40;0.40;;;;;;;;;;5000026;28;20030;-79
2023/01/14 06:13:28;;;;;;;0.30;0.30;;;;;;;;;;5001053;28;20565;-77
2023/01/14 06:15:55;;;;;;;4.00;0.30;;;;;;;;;;5004863;28;20026;-78
2023/01/14 06:18:22;;;;;;;0.80;0.47;;;;;;;;;;5006200;28;20659;-78
2023/01/14 06:20:49;;;;;;;0.95;0.50;;;;;;;;;;5004103;28;20037;-78
2023/01/14 06:23:15;;;;;;;0.73;0.50;;;;;;;;;;5004465;28;20038;-78
2023/01/14 06:25:46;;;;;;;2.17;0.60;;;;;;;;;;5002610;28;20405;-77
2023/01/14 06:28:12;;;;;;;3.20;0.47;;;;;;;;;;5004199;28;20038;-78
2023/01/14 06:30:38;;;;;;;0.63;0.50;;;;;;;;;;5005679;28;20646;-78
2023/01/14 06:33:06;;;;;;;0.50;0.50;;;;;;;;;;5003823;28;20029;-78
2023/01/14 06:35:32;;;;;;;0.57;0.57;;;;;;;;;;5009313;28;20112;-78
2023/01/14 06:37:58;;;;;;;1.67;0.50;;;;;;;;;;5005955;28;20033;-78
2023/01/14 06:40:24;;;;;;;1.15;0.40;;;;;;;;;;5003873;28;20056;-78
2023/01/14 06:42:52;;;;;;;1.08;0.82;;;;;;;;;;5001884;28;20033;-78
2023/01/14 06:45:18;;;;;;;0.68;0.30;;;;;;;;;;5007111;28;20026;-78
2023/01/14 06:47:47;;;;;;;0.52;0.52;;;;;;;;;;5007108;28;20373;-77
2023/01/14 06:50:14;;;;;;;0.52;0.30;;;;;;;;;;5009788;28;20037;-77
2023/01/14 06:52:40;;;;;;;0.68;0.63;;;;;;;;;;5003718;28;20594;-77
2023/01/14 06:55:06;;;;;;;0.30;0.30;;;;;;;;;;5001194;28;20030;-78
2023/01/14 06:57:32;;;;;;;0.70;0.40;;;;;;;;;;5001406;28;20041;-76
2023/01/14 06:59:58;;;;;;;1.17;0.50;;;;;;;;;;5005946;28;20034;-77
2023/01/14 07:02:24;;;;;;;0.52;0.52;;;;;;;;;;4999456;28;20042;-77
2023/01/14 07:04:50;;;;;;;1.55;0.40;;;;;;;;;;5003188;28;20055;-77
2023/01/14 07:07:16;;;;;;;0.70;0.30;;;;;;;;;;5007681;28;20250;-77
2023/01/14 07:09:42;;;;;;;0.75;0.40;;;;;;;;;;5006061;28;20485;-77
2023/01/14 07:12:08;;;;;;;2.17;0.75;;;;;;;;;;5005802;28;20025;-78
2023/01/14 07:14:34;;;;;;;0.40;0.40;;;;;;;;;;5005610;28;20551;-78
2023/01/14 07:17:01;;;;;;;1.65;0.43;;;;;;;;;;5008813;28;20373;-77
2023/01/14 07:19:27;;;;;;;2.25;0.40;;;;;;;;;;5007395;28;20033;-77
2023/01/14 07:21:53;;;;;;;3.05;0.40;;;;;;;;;;5006949;28;20053;-78
2023/01/14 07:24:19;;;;;;;2.15;0.60;;;;;;;;;;5005430;28;20076;-77
2023/01/14 07:26:45;;;;;;;2.72;0.47;;;;;;;;;;5007355;28;20046;-77
2023/01/14 07:29:11;;;;;;;0.40;0.30;;;;;;;;;;5008286;28;20030;-77
2023/01/14 07:31:37;;;;;;;0.65;0.30;;;;;;;;;;5003401;28;20378;-77
2023/01/14 07:34:04;;;;;;;1.08;0.60;;;;;;;;;;5006777;28;20099;-78
2023/01/14 07:36:30;;;;;;;2.38;0.50;;;;;;;;;;5008169;28;20120;-78
2023/01/14 07:38:55;;;;;;;0.35;0.35;;;;;;;;;;5008072;28;20080;-78
2023/01/14 07:41:22;;;;;;;0.50;0.50;;;;;;;;;;5003526;28;20029;-78
2023/01/14 07:43:48;;;;;;;0.50;0.43;;;;;;;;;;5000729;28;20048;-78
2023/01/14 07:46:15;;;;;;;2.45;0.52;;;;;;;;;;5006113;28;20116;-77
2023/01/14 07:48:44;;;;;;;0.50;0.40;;;;;;;;;;5005030;28;20413;-77
2023/01/14 07:51:11;;;;;;;1.95;1.05;;;;;;;;;;5005058;28;20052;-77
2023/01/14 07:53:37;;;;;;;0.30;0.20;;;;;;;;;;5006316;28;20096;-77
2023/01/14 07:56:04;;;;;;;0.82;0.50;;;;;;;;;;5007289;28;20033;-76
2023/01/14 07:58:31;;;;;;;1.80;0.80;;;;;;;;;;5006709;28;20029;-77
2023/01/14 08:00:57;;;;;;;1.88;0.65;;;;;;;;;;5007274;28;20030;-76
2023/01/14 08:03:24;;;;;;;0.40;0.40;;;;;;;;;;5004949;28;20547;-76
2023/01/14 08:05:50;;;;;;;1.65;0.40;;;;;;;;;;5008684;28;20116;-77
2023/01/14 08:08:16;;;;;;;0.43;0.40;;;;;;;;;;5003100;28;20037;-77
2023/01/14 08:10:42;;;;;;;0.50;0.32;;;;;;;;;;5007706;28;20028;-77
2023/01/14 08:13:11;;;;;;;2.35;1.08;;;;;;;;;;5003890;28;20037;-76
2023/01/14 08:15:37;;;;;;;1.67;0.45;;;;;;;;;;5005137;28;20028;-77
2023/01/14 08:18:03;;;;;;;1.00;0.60;;;;;;;;;;5002300;28;20018;-78
2023/01/14 08:20:29;;;;;;;1.30;0.90;;;;;;;;;;4998686;28;20674;-78
2023/01/14 08:22:59;;;;;;;0.80;0.40;;;;;;;;;;4999015;28;20022;-79
2023/01/14 08:25:26;;;;;;;0.30;0.30;;;;;;;;;;5006171;28;20028;-77
2023/01/14 08:27:52;;;;;;;0.90;0.32;;;;;;;;;;5005757;28;20022;-77
2023/01/14 08:30:21;;;;;;;0.47;0.40;;;;;;;;;;5004040;28;20393;-77
2023/01/14 08:32:49;;;;;;;0.88;0.60;;;;;;;;;;5002927;28;20116;-77
2023/01/14 08:35:15;;;;;;;0.55;0.52;;;;;;;;;;5006773;28;20034;-77
2023/01/14 08:37:41;;;;;;;2.33;0.60;;;;;;;;;;5007330;28;20033;-78
2023/01/14 08:40:08;;;;;;;0.75;0.50;;;;;;;;;;5006422;28;20028;-77
2023/01/14 08:42:34;;;;;;;2.40;0.50;;;;;;;;;;5000764;28;20038;-76
2023/01/14 08:45:00;;;;;;;0.60;0.40;;;;;;;;;;5007066;28;20121;-77
2023/01/14 08:47:28;;;;;;;0.40;0.40;;;;;;;;;;5007704;28;20030;-78
2023/01/14 08:49:54;;;;;;;0.55;0.32;;;;;;;;;;5011275;28;20104;-78
2023/01/14 08:52:20;;;;;;;4.82;0.60;;;;;;;;;;5007633;28;20033;-78
2023/01/14 08:54:46;;;;;;;0.20;0.20;;;;;;;;;;5011143;28;20105;-78
2023/01/14 08:57:12;;;;;;;0.65;0.30;;;;;;;;;;5007984;28;20485;-77
2023/01/14 08:59:38;;;;;;;0.30;0.30;;;;;;;;;;5008552;28;20038;-78
2023/01/14 09:02:04;;;;;;;1.50;0.50;;;;;;;;;;4997694;28;20072;-77
2023/01/14 09:04:30;;;;;;;1.15;0.60;;;;;;;;;;5010090;28;20084;-78
2023/01/14 09:18:03;;;;;;;2.80;0.82;;;;;;;;;;4978874;28;20740;-79
2023/01/14 09:20:33;;;;;;;1.80;0.38;;;;;;;;;;5012660;28;20026;-79
2023/01/14 09:23:00;;;;;;;0.60;0.50;;;;;;;;;;5010799;28;20038;-78
2023/01/14 09:25:29;;;;;;;1.25;0.50;;;;;;;;;;5014731;28;20042;-78
2023/01/14 09:27:55;;;;;;;1.88;0.40;;;;;;;;;;5000956;28;20037;-78
2023/01/14 09:30:21;;;;;;;1.42;0.60;;;;;;;;;;5001466;28;20018;-78
2023/01/14 09:32:47;;;;;;;0.43;0.32;;;;;;;;;;5003725;28;20014;-79
2023/01/14 09:35:13;;;;;;;1.05;0.50;;;;;;;;;;5003961;28;20092;-79
2023/01/14 09:37:39;;;;;;;0.63;0.50;;;;;;;;;;5008668;28;20109;-79
2023/01/14 09:40:05;;;;;;;1.55;0.45;;;;;;;;;;5005029;28;20030;-80
2023/01/14 09:42:48;;;;;;;1.35;0.52;;;;;;;;;;5006637;28;20574;-80
2023/01/14 09:45:14;;;;;;;1.05;0.68;;;;;;;;;;5006408;28;20064;-79
2023/01/14 09:47:41;;;;;;;2.05;0.85;;;;;;;;;;5010829;28;20025;-79
2023/01/14 09:50:10;;;;;;;1.40;0.70;;;;;;;;;;5006512;28;20034;-79
2023/01/14 09:53:01;;;;;;;1.75;0.85;;;;;;;;;;5006428;28;20026;-77
2023/01/14 09:55:39;;;;;;;2.13;0.52;;;;;;;;;;5006896;28;20555;-78
2023/01/14 09:58:17;;;;;;;2.03;0.60;;;;;;;;;;5007621;28;20030;-79
2023/01/14 10:00:50;;;;;;;0.68;0.40;;;;;;;;;;5006063;28;20041;-76
2023/01/14 10:03:28;;;;;;;1.52;0.60;;;;;;;;;;5004186;28;20804;-77
2023/01/14 10:06:06;;;;;;;0.90;0.50;;;;;;;;;;5006253;28;20473;-75
2023/01/14 10:08:58;;;;;;;2.17;1.40;;;;;;;;;;5000299;28;20083;-77
2023/01/14 10:11:28;;;;;;;1.20;1.02;;;;;;;;;;5005517;28;20048;-75
2023/01/14 10:14:04;;;;;;;0.52;0.50;;;;;;;;;;5001488;28;20040;-75
2023/01/14 10:16:38;;;;;;;3.58;1.13;;;;;;;;;;4996760;28;20123;-76
2023/01/14 10:19:18;;;;;;;2.10;1.08;;;;;;;;;;5006821;28;20030;-76
2023/01/14 10:21:50;;;;;;;3.50;1.83;;;;;;;;;;5002427;28;20148;-76
2023/01/14 10:24:17;;;;;;;3.47;1.50;;;;;;;;;;5007512;28;20034;-76
2023/01/14 10:26:44;;;;;;;2.15;1.02;;;;;;;;;;5004036;28;20052;-77
2023/01/14 10:29:13;;;;;;;2.38;1.30;;;;;;;;;;5000089;28;20045;-77
2023/01/14 10:31:40;;;;;;;2.90;1.67;;;;;;;;;;5000789;28;20393;-75
2023/01/14 10:34:11;;;;;;;3.85;1.38;;;;;;;;;;5004209;28;20191;-78
2023/01/14 10:36:37;;;;;;;4.13;1.83;;;;;;;;;;5004608;28;20030;-76
2023/01/14 10:39:03;;;;;;;2.05;1.23;;;;;;;;;;5004482;28;20684;-77
2023/01/14 10:44:43;;;;;;;3.25;1.50;;;;;;;;;;5001924;28;20084;-78
2023/01/14 10:47:11;;;;;;;5.03;1.30;;;;;;;;;;5001699;28;20160;-77
2023/01/14 10:49:40;;;;;;;1.83;1.13;;;;;;;;;;5008301;28;20646;-79
2023/01/14 10:52:21;;;;;;;1.77;1.40;;;;;;;;;;5000776;28;20409;-76
2023/01/14 10:55:01;;;;;;;2.85;1.10;;;;;;;;;;5006039;28;20511;-77
2023/01/14 10:57:29;;;;;;;5.22;1.70;;;;;;;;;;5004216;28;20037;-76
2023/01/14 11:00:02;;;;;;;3.20;1.30;;;;;;;;;;5001905;28;20033;-77
2023/01/14 11:02:36;;;;;;;2.38;1.50;;;;;;;;;;5005087;28;20037;-76
2023/01/14 11:05:07;;;;;;;2.58;1.67;;;;;;;;;;5002547;28;20049;-76
2023/01/14 11:07:33;;;;;;;;;;;;;;;;;;5007594;28;20050;-75
2023/01/14 11:10:01;;;;;;;4.80;1.77;;;;;;;;;;5005189;28;19952;-76
2023/01/14 11:12:28;;;;;;;4.07;2.08;;;;;;;;;;5005356;28;20088;-76
2023/01/14 11:14:54;;;;;;;3.50;1.85;;;;;;;;;;5005670;28;20022;-77
2023/01/14 11:17:28;;;;;;;4.90;2.03;;;;;;;;;;5005705;28;20049;-76
2023/01/14 11:20:14;;;;;;;4.03;1.42;;;;;;;;;;5001698;28;20109;-76
2023/01/14 11:22:40;;;;;;;5.28;1.95;;;;;;;;;;5004351;28;20044;-76
2023/01/14 11:25:06;;;;;;;5.20;1.70;;;;;;;;;;4995907;28;20673;-76
2023/01/14 11:27:32;;;;;;;3.90;1.60;;;;;;;;;;5001386;28;20046;-76
2023/01/14 11:29:59;;;;;;;3.83;1.58;;;;;;;;;;5007920;28;20028;-76
2023/01/14 11:32:37;;;;;;;4.35;1.60;;;;;;;;;;5095049;27;20335;-74
2023/01/14 11:35:04;;;;;;;2.17;1.20;;;;;;;;;;5070327;28;20017;-73
2023/01/14 11:37:30;;;;;;;2.10;1.27;;;;;;;;;;5088502;28;20039;-73
2023/01/14 11:39:57;;;;;;;2.70;1.48;;;;;;;;;;5071113;28;20028;-78
2023/01/14 11:42:26;;;;;;;2.40;1.23;;;;;;;;;;5079719;28;20494;-77
2023/01/14 11:45:00;;;;;;;3.05;1.65;;;;;;;;;;5082031;28;20027;-78
2023/01/14 11:47:27;;;;;;;5.72;1.15;;;;;;;;;;5072223;28;20368;-76
2023/01/14 11:50:12;;;;;;;1.40;1.20;;;;;;;;;;5075644;28;20513;-76
2023/01/14 11:52:38;;;;;;;2.35;1.63;;;;;;;;;;5075463;28;20085;-76
2023/01/14 11:55:05;;;;;;;2.35;1.50;;;;;;;;;;5084259;28;20450;-76
2023/01/14 11:57:31;;;;;;;5.45;1.05;;;;;;;;;;5078449;28;20122;-76
2023/01/14 11:59:57;;;;;;;1.52;1.33;;;;;;;;;;5083843;28;20085;-76
2023/01/14 12:02:25;;;;;;;2.22;1.20;;;;;;;;;;5086972;28;20039;-76
2023/01/14 12:05:03;;;;;;;3.95;1.67;;;;;;;;;;5088609;28;20028;-76
2023/01/14 12:07:35;;;;;;;1.92;1.30;;;;;;;;;;5088271;28;20028;-76
2023/01/14 12:10:16;;;;;;;2.33;1.00;;;;;;;;;;5082813;28;20028;-77
2023/01/14 12:18:41;;;;;;;2.00;1.33;;;;;;;;;;5086562;28;20044;-77
2023/01/14 12:21:07;;;;;;;1.17;1.05;;;;;;;;;;5083332;28;20077;-76
2023/01/14 12:23:36;;;;;;;2.85;1.60;;;;;;;;;;5084141;28;20115;-76
2023/01/14 12:26:05;;;;;;;3.10;1.48;;;;;;;;;;5084551;28;20402;-77
2023/01/14 12:28:43;;;;;;;2.75;1.23;;;;;;;;;;5094626;28;20081;-76
2023/01/14 12:31:17;;;;;;;2.78;1.70;;;;;;;;;;5077515;28;20051;-79
2023/01/14 12:33:45;;;;;;;3.38;1.40;;;;;;;;;;5064861;28;20547;-76
2023/01/14 12:36:17;;;;;;;3.55;1.40;;;;;;;;;;5063796;28;20031;-76
2023/01/14 12:47:36;;;;;;;1.85;1.08;;;;;;;;;;5054626;28;20098;-77
2023/01/14 12:50:09;;;;;;;3.58;1.20;;;;;;;;;;5057328;28;20472;-78
2023/01/14 12:52:37;;;;;;;2.78;1.15;;;;;;;;;;5062908;28;20102;-74
2023/01/14 12:55:04;;;;;;;1.70;1.00;;;;;;;;;;5049748;28;20029;-76
2023/01/14 12:57:30;;;;;;;1.58;1.08;;;;;;;;;;5053347;28;20017;-76
2023/01/14 13:00:06;;;;;;;2.30;1.10;;;;;;;;;;5051902;28;20111;-74
2023/01/14 13:02:38;;;;;;;3.13;1.35;;;;;;;;;;5053271;28;20127;-72
2023/01/14 13:05:06;;;;;;;2.78;1.05;;;;;;;;;;5050579;28;20506;-75
2023/01/14 13:07:33;;;;;;;2.92;0.93;;;;;;;;;;5055929;28;20119;-74
2023/01/14 13:10:02;;;;;;;3.05;1.20;;;;;;;;;;5053087;28;20037;-74
2023/01/14 13:12:28;;;;;;;4.65;1.70;;;;;;;;;;5053010;28;20029;-75
2023/01/14 13:14:56;;;;;;;2.55;1.10;;;;;;;;;;5059411;28;20066;-73
2023/01/14 13:17:38;;;;;;;1.42;1.00;;;;;;;;;;5065469;28;20119;-73
2023/01/14 13:20:19;;;;;;;6.63;1.90;;;;;;;;;;5065361;28;20020;-75
2023/01/14 13:22:48;;;;;;;5.05;1.17;;;;;;;;;;5059958;28;20020;-74
2023/01/14 13:25:40;;;;;;;5.70;1.00;;;;;;;;;;5068319;28;20031;-74
2023/01/14 13:28:12;;;;;;;1.17;1.00;;;;;;;;;;5063392;28;20036;-75
2023/01/14 13:30:57;;;;;;;4.05;1.10;;;;;;;;;;5061948;28;20053;-76
2023/01/14 13:33:26;;;;;;;3.80;1.20;;;;;;;;;;5062050;28;20067;-76
2023/01/14 13:36:11;;;;;;;1.05;0.80;;;;;;;;;;5063180;28;20600;-75
2023/01/14 13:38:42;;;;;;;1.73;1.02;;;;;;;;;;5056936;28;20024;-76
2023/01/14 13:41:09;;;;;;;5.93;1.30;;;;;;;;;;5059807;28;20024;-79
2023/01/14 13:43:39;;;;;;;2.53;0.90;;;;;;;;;;5059438;28;20028;-75
2023/01/14 13:46:07;;;;;;;2.92;0.77;;;;;;;;;;5056272;28;20490;-75
2023/01/14 13:48:52;;;;;;;2.58;0.93;;;;;;;;;;5053299;28;20054;-76
2023/01/14 13:51:29;;;;;;;3.60;1.13;;;;;;;;;;5048304;28;20025;-75
2023/01/14 13:54:01;;;;;;;3.30;1.10;;;;;;;;;;5045779;28;20021;-76
2023/01/14 13:56:28;;;;;;;2.13;1.10;;;;;;;;;;5050610;28;20043;-74
2023/01/14 13:58:55;;;;;;;3.50;1.23;;;;;;;;;;5059689;28;20036;-75
2023/01/14 14:01:27;;;;;;;4.10;0.65;;;;;;;;;;5046742;28;20119;-75
2023/01/14 14:03:54;;;;;;;1.83;1.00;;;;;;;;;;5055379;28;20678;-75
2023/01/14 14:06:20;;;;;;;2.25;0.88;;;;;;;;;;5052327;28;20037;-76
2023/01/14 14:09:05;;;;;;;0.98;0.80;;;;;;;;;;5059448;28;20382;-76
2023/01/14 14:11:39;;;;;;;2.33;0.65;;;;;;;;;;5052603;28;20033;-76
2023/01/14 14:14:06;;;;;;;2.88;1.17;;;;;;;;;;5061332;28;20029;-75
2023/01/14 14:16:38;;;;;;;6.18;1.02;;;;;;;;;;5055810;28;20024;-75
2023/01/14 14:19:10;;;;;;;2.25;1.48;;;;;;;;;;5063460;28;20037;-75
2023/01/14 14:21:51;;;;;;;1.75;0.80;;;;;;;;;;5055056;28;20048;-75
2023/01/14 14:24:26;;;;;;;2.92;1.08;;;;;;;;;;5054051;28;20029;-75
2023/01/14 14:26:53;;;;;;;2.08;1.05;;;;;;;;;;5056348;28;20054;-75
2023/01/14 14:29:20;;;;;;;1.40;0.70;;;;;;;;;;5058067;28;20025;-77
2023/01/14 14:31:47;;;;;;;1.70;0.98;;;;;;;;;;5053244;28;20043;-75
2023/01/14 14:34:21;;;;;;;3.53;1.00;;;;;;;;;;5050268;28;20039;-73
2023/01/14 14:36:57;;;;;;;0.70;0.65;;;;;;;;;;5053837;28;20384;-76
2023/01/14 14:39:31;;;;;;;1.83;0.88;;;;;;;;;;5048004;28;20032;-72
2023/01/14 14:41:57;;;;;;;2.17;0.95;;;;;;;;;;5048891;28;20029;-73
2023/01/14 14:44:25;;;;;;;1.83;0.80;;;;;;;;;;5057298;28;20273;-74
2023/01/14 14:46:51;;;;;;;2.65;0.80;;;;;;;;;;5057042;28;20387;-76
2023/01/14 14:49:21;;;;;;;2.53;0.77;;;;;;;;;;5058930;28;20454;-76
2023/01/14 14:51:48;;;;;;;2.08;0.60;;;;;;;;;;5057075;28;20479;-75
2023/01/14 14:54:30;;;;;;;2.75;1.20;;;;;;;;;;5051550;28;20020;-75
2023/01/14 14:56:57;;;;;;;0.95;0.50;;;;;;;;;;5053892;28;20023;-76
2023/01/14 14:59:24;;;;;;;1.55;0.90;;;;;;;;;;5052539;28;20091;-75
2023/01/14 15:01:51;;;;;;;1.20;0.77;;;;;;;;;;5054557;28;20040;-75
2023/01/14 15:04:18;;;;;;;1.40;0.73;;;;;;;;;;5053815;28;20089;-74
2023/01/14 15:06:45;;;;;;;2.47;0.95;;;;;;;;;;5053592;28;20048;-76
2023/01/14 15:09:14;;;;;;;1.23;0.70;;;;;;;;;;5058858;28;20028;-75
2023/01/14 15:11:44;;;;;;;3.13;1.10;;;;;;;;;;5056277;28;20033;-74
2023/01/14 15:14:19;;;;;;;8.68;1.88;;;;;;;;;;5045772;28;20021;-74
2023/01/14 15:16:52;;;;;;;1.58;1.00;;;;;;;;;;5051901;28;20040;-76
2023/01/14 15:19:18;;;;;;;4.60;0.95;;;;;;;;;;5050227;28;20021;-75
2023/01/14 15:21:44;;;;;;;2.72;0.90;;;;;;;;;;5057342;28;20072;-75
2023/01/14 15:24:16;;;;;;;3.13;1.30;;;;;;;;;;5051032;28;20028;-76
2023/01/14 15:26:43;;;;;;;1.67;0.88;;;;;;;;;;5049035;28;20032;-76
2023/01/14 15:29:19;;;;;;;5.50;0.98;;;;;;;;;;5051436;28;21066;-74
2023/01/14 15:31:49;;;;;;;1.80;0.90;;;;;;;;;;5051167;28;20134;-75
2023/01/14 15:34:15;;;;;;;3.95;1.15;;;;;;;;;;5050192;28;20028;-73
2023/01/14 15:36:56;;;;;;;3.85;0.93;;;;;;;;;;5056500;28;20020;-75
2023/01/14 15:39:22;;;;;;;;;;;;;;;;;;5050614;28;20040;-76
2023/01/14 15:41:57;;;;;;;3.50;1.60;;;;;;;;;;5048868;28;19935;-76
2023/01/14 15:44:28;;;;;;;2.55;1.30;;;;;;;;;;5048919;28;20476;-75
2023/01/14 15:46:54;;;;;;;2.85;1.10;;;;;;;;;;5059793;28;20036;-76
2023/01/14 15:49:27;;;;;;;2.55;1.13;;;;;;;;;;5063020;28;20063;-75